createdAt,value
2018-06-07T00:00:57.394Z,17.70
2018-06-07T00:03:26.921Z,16.50
2018-06-07T00:17:47.851Z,18.17
2018-06-07T00:20:17.268Z,17.23
2018-06-07T00:22:46.652Z,17.40
2018-06-07T00:25:16.102Z,17.70
2018-06-07T00:27:45.500Z,17.90
2018-06-07T00:30:14.987Z,18.40
2018-06-07T00:32:44.374Z,17.10
2018-06-07T00:35:13.827Z,17.17
2018-06-07T00:37:42.978Z,17.37
2018-06-07T00:40:12.450Z,17.90
2018-06-07T00:42:41.897Z,18.20
2018-06-07T00:45:11.067Z,17.63
2018-06-07T00:47:40.450Z,15.90
2018-06-07T00:50:10.294Z,18.20
2018-06-07T00:52:39.698Z,16.10
2018-06-07T00:55:09.165Z,17.20
2018-06-07T00:57:38.593Z,17.83
2018-06-07T01:00:08.060Z,16.30
2018-06-07T01:02:37.184Z,16.43
2018-06-07T01:05:06.575Z,16.70
2018-06-07T01:07:36.080Z,17.00
2018-06-07T01:10:05.838Z,16.27
2018-06-07T01:12:35.303Z,16.80
2018-06-07T01:15:04.706Z,17.43
2018-06-07T01:17:34.135Z,16.60
2018-06-07T01:20:03.800Z,18.63
2018-06-07T01:22:33.285Z,16.90
2018-06-07T01:25:02.854Z,17.40
2018-06-07T01:27:41.645Z,16.30
2018-06-07T01:30:27.461Z,16.60
2018-06-07T01:33:27.793Z,18.00
2018-06-07T01:35:58.380Z,17.43
2018-06-07T01:38:39.141Z,17.57
2018-06-07T01:41:08.880Z,18.43
2018-06-07T01:43:38.351Z,16.83
2018-06-07T01:46:07.751Z,17.20
2018-06-07T01:48:37.211Z,17.20
2018-06-07T01:51:06.948Z,16.90
2018-06-07T01:53:36.387Z,17.53
2018-06-07T01:56:05.472Z,16.50
2018-06-07T01:58:34.972Z,17.60
2018-06-07T02:01:04.397Z,16.50
2018-06-07T02:03:33.884Z,17.83
2018-06-07T02:06:03.293Z,17.63
2018-06-07T02:08:32.694Z,15.80
2018-06-07T02:11:02.117Z,16.87
2018-06-07T02:13:31.586Z,17.53
2018-06-07T02:16:00.996Z,16.53
2018-06-07T02:18:30.452Z,16.70
2018-06-07T02:20:59.868Z,16.77
2018-06-07T02:23:29.353Z,16.80
2018-06-07T02:25:58.754Z,16.37
2018-06-07T02:28:28.171Z,17.73
2018-06-07T02:30:57.531Z,17.73
2018-06-07T02:33:27.024Z,17.20
2018-06-07T02:35:56.417Z,17.13
2018-06-07T02:38:25.881Z,17.07
2018-06-07T02:40:55.265Z,16.53
2018-06-07T02:43:24.729Z,17.83
2018-06-07T02:45:54.094Z,16.70
2018-06-07T02:48:23.525Z,17.53
2018-06-07T02:50:52.937Z,17.70
2018-06-07T02:53:22.392Z,18.00
2018-06-07T02:55:51.798Z,16.93
2018-06-07T02:58:21.181Z,16.20
2018-06-07T03:00:50.596Z,16.23
2018-06-07T03:03:20.031Z,16.97
2018-06-07T03:05:49.121Z,15.87
2018-06-07T03:08:18.911Z,16.30
2018-06-07T03:10:48.236Z,17.00
2018-06-07T03:13:17.744Z,17.87
2018-06-07T03:15:47.165Z,16.00
2018-06-07T03:18:17.007Z,16.27
2018-06-07T03:20:46.376Z,17.13
2018-06-07T03:23:15.818Z,17.40
2018-06-07T03:25:45.217Z,17.80
2018-06-07T03:28:14.693Z,17.83
2018-06-07T03:30:44.125Z,18.53
2018-06-07T03:33:13.641Z,17.07
2018-06-07T03:35:43.076Z,17.07
2018-06-07T03:38:12.533Z,17.27
2018-06-07T03:40:41.962Z,18.10
2018-06-07T03:43:11.417Z,18.03
2018-06-07T03:45:40.822Z,18.40
2018-06-07T03:48:14.021Z,18.23
2018-06-07T03:50:43.393Z,18.13
2018-06-07T03:53:12.836Z,17.93
2018-06-07T03:55:42.262Z,16.60
2018-06-07T03:58:11.522Z,20.17
2018-06-07T04:00:40.943Z,18.43
2018-06-07T04:03:11.498Z,18.00
2018-06-07T04:05:40.876Z,18.10
2018-06-07T04:08:10.275Z,18.43
2018-06-07T04:10:39.677Z,17.90
2018-06-07T04:13:09.187Z,18.27
2018-06-07T04:15:38.542Z,17.10
2018-06-07T04:18:07.984Z,16.83
2018-06-07T04:20:37.330Z,18.40
2018-06-07T04:23:06.781Z,17.87
2018-06-07T04:25:36.213Z,18.83
2018-06-07T04:28:05.667Z,17.60
2018-06-07T04:30:35.118Z,18.40
2018-06-07T04:33:04.911Z,18.60
2018-06-07T04:35:34.252Z,18.73
2018-06-07T04:38:03.840Z,18.27
2018-06-07T04:40:33.125Z,17.57
2018-06-07T04:43:02.576Z,18.33
2018-06-07T04:45:34.375Z,16.97
2018-06-07T04:48:04.006Z,17.27
2018-06-07T04:50:35.348Z,20.17
2018-06-07T04:53:05.829Z,17.97
2018-06-07T04:55:37.151Z,17.47
2018-06-07T04:58:08.417Z,16.60
2018-06-07T05:00:38.995Z,17.70
2018-06-07T05:03:11.506Z,18.03
2018-06-07T05:08:40.876Z,17.93
2018-06-07T05:11:12.461Z,17.40
2018-06-07T05:13:42.695Z,17.47
2018-06-07T05:16:13.143Z,17.90
2018-06-07T05:18:44.101Z,17.90
2018-06-07T05:21:15.334Z,17.20
2018-06-07T05:23:48.395Z,17.73
2018-06-07T05:26:19.713Z,18.07
2018-06-07T05:28:51.674Z,17.57
2018-06-07T05:31:23.768Z,17.80
2018-06-07T05:33:55.985Z,17.73
2018-06-07T05:36:27.959Z,18.23
2018-06-07T05:39:00.817Z,17.57
2018-06-07T05:41:32.837Z,18.87
2018-06-07T05:44:03.791Z,17.73
2018-06-07T05:46:35.522Z,17.30
2018-06-07T05:49:07.299Z,18.00
2018-06-07T05:51:39.472Z,16.80
2018-06-07T05:54:11.371Z,18.30
2018-06-07T05:56:43.271Z,14.17
2018-06-07T05:59:15.998Z,15.77
2018-06-07T06:01:48.333Z,16.03
2018-06-07T06:04:18.814Z,17.30
2018-06-07T06:06:49.709Z,17.50
2018-06-07T06:09:21.019Z,16.67
2018-06-07T06:11:52.630Z,16.73
2018-06-07T06:14:25.676Z,13.67
2018-06-07T06:16:55.255Z,14.40
2018-06-07T06:19:24.647Z,14.30
2018-06-07T06:21:54.394Z,15.30
2018-06-07T06:24:23.861Z,17.10
2018-06-07T06:26:53.273Z,15.10
2018-06-07T06:29:22.659Z,14.97
2018-06-07T06:31:52.053Z,14.53
2018-06-07T06:34:21.498Z,16.27
2018-06-07T06:36:50.880Z,12.57
2018-06-07T06:39:20.276Z,13.83
2018-06-07T06:41:49.764Z,14.37
2018-06-07T06:44:19.159Z,13.20
2018-06-07T06:46:48.613Z,13.53
2018-06-07T06:49:18.084Z,13.90
2018-06-07T06:51:47.733Z,11.53
2018-06-07T06:54:17.182Z,11.80
2018-06-07T06:56:46.684Z,12.70
2018-06-07T06:59:16.319Z,12.30
2018-06-07T07:01:45.876Z,11.00
2018-06-07T07:04:15.277Z,11.10
2018-06-07T07:06:44.984Z,10.90
2018-06-07T07:09:14.414Z,9.67
2018-06-07T07:11:43.991Z,9.90
2018-06-07T07:14:13.502Z,10.00
2018-06-07T07:16:42.956Z,10.47
2018-06-07T07:19:12.346Z,9.60
2018-06-07T07:21:41.770Z,10.40
2018-06-07T07:24:11.161Z,11.17
2018-06-07T07:26:40.647Z,9.20
2018-06-07T07:29:10.000Z,11.60
2018-06-07T07:31:39.557Z,10.57
2018-06-07T07:34:08.993Z,8.80
2018-06-07T07:36:38.409Z,10.57
2018-06-07T07:39:08.032Z,9.30
2018-06-07T07:41:37.470Z,9.13
2018-06-07T07:44:06.877Z,10.00
2018-06-07T07:46:36.405Z,10.57
2018-06-07T07:49:05.782Z,10.57
2018-06-07T07:51:35.188Z,11.10
2018-06-07T07:54:04.694Z,9.77
2018-06-07T07:56:34.102Z,10.00
2018-06-07T07:59:03.627Z,9.73
2018-06-07T08:01:32.976Z,9.80
2018-06-07T08:04:02.458Z,10.23
2018-06-07T08:06:31.800Z,9.67
2018-06-07T08:09:01.312Z,9.10
2018-06-07T08:11:30.702Z,10.23
2018-06-07T08:14:00.165Z,10.80
2018-06-07T08:16:29.556Z,10.30
2018-06-07T08:18:59.076Z,9.30
2018-06-07T08:21:28.450Z,9.73
2018-06-07T08:23:57.891Z,8.87
2018-06-07T08:26:27.294Z,8.03
2018-06-07T08:28:56.728Z,9.27
2018-06-07T08:31:26.240Z,7.77
2018-06-07T08:33:55.613Z,9.80
2018-06-07T08:36:25.107Z,10.20
2018-06-07T08:38:54.637Z,9.30
2018-06-07T08:41:24.022Z,9.40
2018-06-07T08:43:53.425Z,8.27
2018-06-07T08:46:22.795Z,9.17
2018-06-07T08:48:52.257Z,8.60
2018-06-07T08:51:21.642Z,8.17
2018-06-07T08:53:51.216Z,9.23
2018-06-07T08:56:20.661Z,8.43
2018-06-07T08:58:50.050Z,7.67
2018-06-07T09:01:19.487Z,8.43
2018-06-07T09:03:48.847Z,8.50
2018-06-07T09:06:18.861Z,9.77
2018-06-07T09:08:48.274Z,8.37
2018-06-07T09:11:18.288Z,8.03
2018-06-07T09:13:48.048Z,8.77
2018-06-07T09:16:17.590Z,8.10
2018-06-07T09:18:46.998Z,8.00
2018-06-07T09:21:16.848Z,8.70
2018-06-07T09:23:46.237Z,8.10
2018-06-07T09:26:15.740Z,8.27
2018-06-07T09:28:45.109Z,8.40
2018-06-07T09:31:14.971Z,7.97
2018-06-07T09:33:44.341Z,7.90
2018-06-07T09:36:13.855Z,6.90
2018-06-07T09:38:43.205Z,8.17
2018-06-07T09:41:12.635Z,7.77
2018-06-07T09:43:42.758Z,6.57
2018-06-07T09:46:12.144Z,8.00
2018-06-07T09:48:41.300Z,7.03
2018-06-07T09:51:10.967Z,8.37
2018-06-07T09:53:40.448Z,7.73
2018-06-07T09:56:09.808Z,8.13
2018-06-07T09:58:39.271Z,8.33
2018-06-07T10:01:08.681Z,8.40
2018-06-07T10:03:38.240Z,8.00
2018-06-07T10:06:07.773Z,7.77
2018-06-07T10:08:37.519Z,6.90
2018-06-07T10:11:06.934Z,7.80
2018-06-07T10:13:36.290Z,7.00
2018-06-07T10:16:05.817Z,9.00
2018-06-07T10:18:35.246Z,8.50
2018-06-07T10:21:04.709Z,8.30
2018-06-07T10:23:34.049Z,8.17
2018-06-07T10:26:04.121Z,8.70
2018-06-07T10:28:33.468Z,8.73
2018-06-07T10:31:03.232Z,8.07
2018-06-07T10:33:32.622Z,9.20
2018-06-07T10:36:02.062Z,8.20
2018-06-07T10:38:31.437Z,7.73
2018-06-07T10:41:00.850Z,7.53
2018-06-07T10:43:30.226Z,8.80
2018-06-07T10:46:00.114Z,6.97
2018-06-07T10:48:30.022Z,7.73
2018-06-07T10:50:59.447Z,8.30
2018-06-07T10:53:28.799Z,8.13
2018-06-07T10:55:58.248Z,8.50
2018-06-07T10:58:28.304Z,7.73
2018-06-07T11:00:57.751Z,7.77
2018-06-07T11:03:28.187Z,8.30
2018-06-07T11:05:58.094Z,8.43
2018-06-07T11:08:27.507Z,7.53
2018-06-07T11:10:57.326Z,9.73
2018-06-07T11:13:26.817Z,8.53
2018-06-07T11:15:56.193Z,8.30
2018-06-07T11:18:26.090Z,8.40
2018-06-07T11:20:55.595Z,8.73
2018-06-07T11:23:24.982Z,9.50
2018-06-07T11:25:54.417Z,8.53
2018-06-07T11:28:23.776Z,8.50
2018-06-07T11:30:53.245Z,9.00
2018-06-07T11:33:23.528Z,9.47
2018-06-07T11:35:52.908Z,8.10
2018-06-07T11:38:22.582Z,9.77
2018-06-07T11:40:52.092Z,9.10
2018-06-07T11:43:21.681Z,8.73
2018-06-07T11:45:51.077Z,9.13
2018-06-07T11:48:21.423Z,9.80
2018-06-07T11:50:50.841Z,9.67
2018-06-07T11:53:20.228Z,9.97
2018-06-07T11:55:49.709Z,9.57
2018-06-07T11:58:19.090Z,10.87
2018-06-07T12:00:48.543Z,9.77
2018-06-07T12:03:18.316Z,9.20
2018-06-07T12:05:47.807Z,11.03
2018-06-07T12:08:17.304Z,9.87
2018-06-07T12:10:46.542Z,10.33
2018-06-07T12:13:16.421Z,10.83
2018-06-07T12:15:45.877Z,11.10
2018-06-07T12:18:15.281Z,12.70
2018-06-07T12:20:45.427Z,11.83
2018-06-07T12:23:15.023Z,11.20
2018-06-07T12:25:44.404Z,10.13
2018-06-07T12:28:13.786Z,11.80
2018-06-07T12:30:43.186Z,10.97
2018-06-07T12:33:12.571Z,10.43
2018-06-07T12:35:41.971Z,11.40
2018-06-07T12:38:11.381Z,11.10
2018-06-07T12:40:40.762Z,11.80
2018-06-07T12:43:10.214Z,10.30
2018-06-07T12:45:39.591Z,11.13
2018-06-07T12:48:09.032Z,11.77
2018-06-07T12:50:39.236Z,10.07
2018-06-07T12:53:08.624Z,9.83
2018-06-07T12:55:38.072Z,10.83
2018-06-07T12:58:07.440Z,10.93
2018-06-07T13:00:37.064Z,11.57
2018-06-07T13:03:06.632Z,10.70
2018-06-07T13:05:36.129Z,11.63
2018-06-07T13:08:05.481Z,11.60
2018-06-07T13:10:34.946Z,10.07
2018-06-07T13:13:04.298Z,10.00
2018-06-07T13:15:33.841Z,12.60
2018-06-07T13:18:03.366Z,10.97
2018-06-07T13:20:33.544Z,10.53
2018-06-07T13:23:03.706Z,10.57
2018-06-07T13:25:33.863Z,11.27
2018-06-07T13:28:03.471Z,10.30
2018-06-07T13:30:32.830Z,10.60
2018-06-07T13:33:12.971Z,12.30
2018-06-07T13:35:42.929Z,11.00
2018-06-07T13:38:12.350Z,11.53
2018-06-07T13:40:41.740Z,11.60
2018-06-07T13:43:11.214Z,13.77
2018-06-07T13:45:40.624Z,12.43
2018-06-07T13:48:10.010Z,10.33
2018-06-07T13:50:39.517Z,10.97
2018-06-07T13:53:09.000Z,11.47
2018-06-07T13:55:38.505Z,11.87
2018-06-07T13:58:08.440Z,11.73
2018-06-07T14:00:37.849Z,12.90
2018-06-07T14:03:07.476Z,13.20
2018-06-07T14:05:37.147Z,12.00
2018-06-07T14:08:06.239Z,11.20
2018-06-07T14:10:35.553Z,12.00
2018-06-07T14:13:05.963Z,11.23
2018-06-07T14:15:35.461Z,13.50
2018-06-07T14:18:04.917Z,10.10
2018-06-07T14:20:34.327Z,10.33
2018-06-07T14:23:03.819Z,11.07
2018-06-07T14:25:33.223Z,10.80
2018-06-07T14:28:02.738Z,11.17
2018-06-07T14:30:32.516Z,12.97
2018-06-07T14:33:01.954Z,11.03
2018-06-07T14:35:31.340Z,11.40
2018-06-07T14:38:00.764Z,12.30
2018-06-07T14:40:30.599Z,11.67
2018-06-07T14:43:00.089Z,7.57
2018-06-07T14:45:29.573Z,5.90
2018-06-07T14:47:59.015Z,6.30
2018-06-07T14:50:28.397Z,4.83
2018-06-07T14:52:57.808Z,4.87
2018-06-07T14:55:28.330Z,5.47
2018-06-07T14:57:58.060Z,4.40
2018-06-07T15:00:27.506Z,5.40
2018-06-07T15:02:56.893Z,4.70
2018-06-07T15:05:26.341Z,4.50
2018-06-07T15:07:55.769Z,4.97
2018-06-07T15:10:25.218Z,4.53
2018-06-07T15:12:54.610Z,4.07
2018-06-07T15:15:25.542Z,5.47
2018-06-07T15:17:54.953Z,5.27
2018-06-07T15:20:24.385Z,4.77
2018-06-07T15:22:53.764Z,5.70
2018-06-07T15:25:23.152Z,5.70
2018-06-07T15:27:52.642Z,5.60
2018-06-07T15:30:22.333Z,6.43
2018-06-07T15:32:51.931Z,6.10
2018-06-07T15:35:21.423Z,7.60
2018-06-07T15:37:51.125Z,7.10
2018-06-07T15:40:20.673Z,6.43
2018-06-07T15:42:50.888Z,8.57
2018-06-07T15:45:20.319Z,7.37
2018-06-07T15:47:49.698Z,8.93
2018-06-07T15:50:19.146Z,8.20
2018-06-07T15:52:48.911Z,9.17
2018-06-07T15:55:18.418Z,8.93
2018-06-07T15:57:47.793Z,9.60
2018-06-07T16:00:18.079Z,9.80
2018-06-07T16:02:48.428Z,9.03
2018-06-07T16:05:17.962Z,9.37
2018-06-07T16:07:48.557Z,10.00
2018-06-07T16:10:17.994Z,10.40
2018-06-07T16:12:47.380Z,10.90
2018-06-07T16:15:16.732Z,10.50
2018-06-07T16:17:46.145Z,9.90
2018-06-07T16:20:15.516Z,9.63
2018-06-07T16:22:45.684Z,9.70
2018-06-07T16:25:15.063Z,10.70
2018-06-07T16:27:44.536Z,11.70
2018-06-07T16:30:15.027Z,12.17
2018-06-07T16:32:44.480Z,14.07
2018-06-07T16:35:13.889Z,10.47
2018-06-07T16:37:43.345Z,11.80
2018-06-07T16:40:12.785Z,12.77
2018-06-07T16:42:42.317Z,13.10
2018-06-07T16:45:11.851Z,13.47
2018-06-07T16:47:41.243Z,12.53
2018-06-07T16:50:10.754Z,12.70
2018-06-07T16:52:40.138Z,15.00
2018-06-07T16:55:09.665Z,13.50
2018-06-07T16:57:39.042Z,13.97
2018-06-07T17:00:08.496Z,14.47
2018-06-07T17:02:37.926Z,14.10
2018-06-07T17:05:08.043Z,14.23
2018-06-07T17:07:37.670Z,14.67
2018-06-07T17:10:07.443Z,14.57
2018-06-07T17:12:36.793Z,13.77
2018-06-07T17:15:06.324Z,13.30
2018-06-07T17:17:35.453Z,14.40
2018-06-07T17:20:04.964Z,14.90
2018-06-07T17:22:34.316Z,13.50
2018-06-07T17:25:04.034Z,14.47
2018-06-07T17:27:33.377Z,14.07
2018-06-07T17:30:03.183Z,16.33
2018-06-07T17:32:32.550Z,16.43
2018-06-07T17:35:02.082Z,16.97
2018-06-07T17:37:31.854Z,18.67
2018-06-07T17:40:01.277Z,17.40
2018-06-07T17:42:30.690Z,18.10
2018-06-07T17:45:00.113Z,16.27
2018-06-07T17:47:29.496Z,16.40
2018-06-07T17:49:58.992Z,15.30
2018-06-07T17:52:28.717Z,18.30
2018-06-07T17:54:58.163Z,16.17
2018-06-07T17:57:27.891Z,15.80
2018-06-07T17:59:57.319Z,14.67
2018-06-07T18:02:26.714Z,16.73
2018-06-07T18:04:56.164Z,16.80
2018-06-07T18:07:25.630Z,17.90
2018-06-07T18:09:55.224Z,17.50
2018-06-07T18:12:24.626Z,18.00
2018-06-07T18:14:54.510Z,16.67
2018-06-07T18:17:23.678Z,18.40
2018-06-07T18:19:53.219Z,15.00
2018-06-07T18:22:22.914Z,17.77
2018-06-07T18:24:52.345Z,14.90
2018-06-07T18:27:22.046Z,17.70
2018-06-07T18:29:51.526Z,18.40
2018-06-07T18:35:26.374Z,15.07
2018-06-07T18:37:55.810Z,16.23
2018-06-07T18:40:25.276Z,14.67
2018-06-07T18:42:54.677Z,14.77
2018-06-07T18:45:24.096Z,15.23
2018-06-07T18:47:53.673Z,15.03
2018-06-07T18:50:23.147Z,14.97
2018-06-07T18:52:52.480Z,14.87
2018-06-07T18:55:21.948Z,14.60
2018-06-07T18:57:51.411Z,14.53
2018-06-07T19:00:20.922Z,14.47
2018-06-07T19:02:50.023Z,12.63
2018-06-07T19:05:19.117Z,15.63
2018-06-07T19:07:49.264Z,14.97
2018-06-07T19:10:20.275Z,16.40
2018-06-07T19:12:50.704Z,14.90
2018-06-07T19:15:20.114Z,15.60
2018-06-07T19:17:49.636Z,16.97
2018-06-07T19:20:24.635Z,16.90
2018-06-07T19:22:53.977Z,16.63
2018-06-07T19:25:28.646Z,16.87
2018-06-07T19:27:58.074Z,17.20
2018-06-07T19:30:28.394Z,15.23
2018-06-07T19:34:01.614Z,18.63
2018-06-07T19:36:31.462Z,17.27
2018-06-07T19:39:05.844Z,16.20
2018-06-07T19:41:40.324Z,16.50
2018-06-07T19:44:09.896Z,16.60
2018-06-07T19:46:39.259Z,19.80
2018-06-07T19:52:06.838Z,19.10
2018-06-07T19:54:36.210Z,19.10
2018-06-07T19:57:06.034Z,20.60
2018-06-07T19:59:35.724Z,21.77
2018-06-07T20:02:05.498Z,19.20
2018-06-07T20:04:34.985Z,18.83
2018-06-07T20:07:04.354Z,18.47
2018-06-07T20:09:33.490Z,20.40
2018-06-07T20:12:03.259Z,21.00
2018-06-07T20:14:32.268Z,18.60
2018-06-07T20:17:01.872Z,21.30
2018-06-07T20:19:31.924Z,18.40
2018-06-07T20:22:01.412Z,18.87
2018-06-07T20:24:31.127Z,19.40
2018-06-07T20:27:00.573Z,20.03
2018-06-07T20:29:30.014Z,20.10
2018-06-07T20:31:59.786Z,21.77
2018-06-07T20:34:29.240Z,19.40
2018-06-07T20:36:58.460Z,18.80
2018-06-07T20:39:27.841Z,20.57
2018-06-07T20:41:57.297Z,20.97
2018-06-07T20:44:26.453Z,20.73
2018-06-07T20:46:55.939Z,21.73
2018-06-07T20:49:25.440Z,22.63
2018-06-07T20:51:54.998Z,21.43
2018-06-07T20:54:24.409Z,20.97
2018-06-07T20:56:53.461Z,21.90
2018-06-07T20:59:22.901Z,21.43
2018-06-07T21:01:52.043Z,19.77
2018-06-07T21:04:21.456Z,21.40
2018-06-07T21:06:50.580Z,21.00
2018-06-07T21:09:19.814Z,18.83
2018-06-07T21:11:49.201Z,19.77
2018-06-07T21:14:18.433Z,20.40
2018-06-07T21:16:47.832Z,20.33
2018-06-07T21:19:17.236Z,21.67
2018-06-07T21:21:46.921Z,19.70
2018-06-07T21:24:16.074Z,22.00
2018-06-07T21:26:45.218Z,20.80
2018-06-07T21:29:14.685Z,20.40
2018-06-07T21:31:44.063Z,19.60
2018-06-07T21:34:13.154Z,20.43
2018-06-07T21:36:42.288Z,21.87
2018-06-07T21:39:11.385Z,20.20
2018-06-07T21:41:40.532Z,21.00
2018-06-07T21:44:09.971Z,18.63
2018-06-07T21:46:39.084Z,20.70
2018-06-07T21:49:08.238Z,21.53
2018-06-07T21:51:37.364Z,20.33
2018-06-07T21:54:06.564Z,20.40
2018-06-07T21:56:35.804Z,22.83
2018-06-07T21:59:05.162Z,24.60
2018-06-07T22:01:34.746Z,21.03
2018-06-07T22:04:03.965Z,23.17
2018-06-07T22:06:33.086Z,23.53
2018-06-07T22:09:02.369Z,23.43
2018-06-07T22:11:31.805Z,23.90
2018-06-07T22:14:01.000Z,24.77
2018-06-07T22:16:30.108Z,24.23
2018-06-07T22:18:59.334Z,22.47
2018-06-07T22:21:28.477Z,24.40
2018-06-07T22:23:57.558Z,24.30
2018-06-07T22:26:26.813Z,24.40
2018-06-07T22:28:55.932Z,25.13
2018-06-07T22:31:25.442Z,25.33
2018-06-07T22:33:54.645Z,25.40
2018-06-07T22:36:23.805Z,24.70
2018-06-07T22:38:53.059Z,26.10
2018-06-07T22:41:22.110Z,25.00
2018-06-07T22:43:51.285Z,26.20
2018-06-07T22:46:20.677Z,26.27
2018-06-07T22:48:49.759Z,25.10
2018-06-07T22:51:18.891Z,23.90
2018-06-07T22:53:47.989Z,25.37
2018-06-07T22:56:17.436Z,25.23
2018-06-07T22:58:46.629Z,26.53
2018-06-07T23:01:15.854Z,24.00
2018-06-07T23:03:45.272Z,25.53
2018-06-07T23:06:14.728Z,22.53
2018-06-07T23:08:43.840Z,23.83
2018-06-07T23:11:13.594Z,25.20
2018-06-07T23:13:42.705Z,23.13
2018-06-07T23:16:11.869Z,23.63
2018-06-07T23:18:41.238Z,25.57
2018-06-07T23:21:10.707Z,23.73
2018-06-07T23:23:40.113Z,25.07
2018-06-07T23:26:09.555Z,23.03
2018-06-07T23:28:38.925Z,24.93
2018-06-07T23:31:08.300Z,26.67
2018-06-07T23:33:37.811Z,25.97
2018-06-07T23:36:07.176Z,24.90
2018-06-07T23:38:36.605Z,25.50
2018-06-07T23:41:06.033Z,24.90
2018-06-07T23:43:35.429Z,25.63
2018-06-07T23:46:04.933Z,25.40
2018-06-07T23:48:34.324Z,26.20
2018-06-07T23:51:04.028Z,24.73
2018-06-07T23:53:33.368Z,24.10
2018-06-07T23:56:02.805Z,23.30
2018-06-07T23:58:32.200Z,24.10
